Time;durP1;ratioP1;P1;durP2;ratioP2;P2;SDS_P1;SDS_P2;PMS_P1;PMS_P2;Temp;Humidity;BMP_temperature;BMP_pressure;BME280_temperature;BME280_humidity;BME280_pressure;Samples;Min_cycle;Max_cycle;Signal;HPM_P1;HPM_P2
2021/01/28 00:03:23;;;;;;;27.23;17.55;;;;;;;;;;10212472;28;20057;-65
2021/01/28 00:08:21;;;;;;;24.15;15.82;;;;;;;;;;10212128;28;20092;-65
2021/01/28 00:13:18;;;;;;;22.55;15.35;;;;;;;;;;10213084;28;20473;-64
2021/01/28 00:18:16;;;;;;;27.27;15.90;;;;;;;;;;10210041;28;20564;-65
2021/01/28 00:23:14;;;;;;;21.48;15.10;;;;;;;;;;10209033;28;20467;-64
2021/01/28 00:28:13;;;;;;;25.83;17.52;;;;;;;;;;10208833;28;20521;-64
2021/01/28 00:33:12;;;;;;;23.05;14.60;;;;;;;;;;10212938;28;20066;-65
2021/01/28 00:38:10;;;;;;;20.92;13.80;;;;;;;;;;10211416;28;20073;-64
2021/01/28 00:43:07;;;;;;;19.58;14.85;;;;;;;;;;10211645;28;20463;-64
2021/01/28 00:48:06;;;;;;;24.02;15.98;;;;;;;;;;10210385;28;20069;-66
2021/01/28 00:53:04;;;;;;;20.90;14.63;;;;;;;;;;10209422;28;20104;-65
2021/01/28 00:58:02;;;;;;;35.83;20.85;;;;;;;;;;10211052;28;20073;-64
2021/01/28 01:03:02;;;;;;;62.63;32.25;;;;;;;;;;10216680;28;20049;-66
2021/01/28 01:08:01;;;;;;;41.33;23.17;;;;;;;;;;10215030;28;20475;-64
2021/01/28 01:12:59;;;;;;;25.13;17.45;;;;;;;;;;10227479;28;20493;-64
2021/01/28 01:17:57;;;;;;;41.05;25.58;;;;;;;;;;10214823;28;20072;-66
2021/01/28 01:23:01;;;;;;;21.30;15.75;;;;;;;;;;10218192;28;20053;-64
2021/01/28 01:28:03;;;;;;;22.58;14.82;;;;;;;;;;10213527;28;20525;-65
2021/01/28 01:33:17;;;;;;;25.48;17.25;;;;;;;;;;10233476;28;20519;-64
2021/01/28 01:38:32;;;;;;;22.08;15.27;;;;;;;;;;10214724;28;20085;-64
2021/01/28 01:43:29;;;;;;;22.55;15.30;;;;;;;;;;10217776;28;20076;-64
2021/01/28 01:48:32;;;;;;;21.35;14.18;;;;;;;;;;10216084;28;20081;-65
2021/01/28 01:53:31;;;;;;;21.63;15.98;;;;;;;;;;10215661;28;20483;-64
2021/01/28 01:58:49;;;;;;;18.63;12.57;;;;;;;;;;10215817;28;20165;-64
2021/01/28 02:04:16;;;;;;;21.83;13.20;;;;;;;;;;10211733;28;20434;-65
2021/01/28 02:09:36;;;;;;;23.25;15.90;;;;;;;;;;10211009;28;20074;-64
2021/01/28 02:14:44;;;;;;;16.88;12.57;;;;;;;;;;10214100;28;20084;-66
2021/01/28 02:19:58;;;;;;;18.10;12.52;;;;;;;;;;10215696;28;20089;-64
2021/01/28 02:25:02;;;;;;;18.80;13.38;;;;;;;;;;10213593;28;20431;-64
2021/01/28 02:30:01;;;;;;;18.65;13.98;;;;;;;;;;10214197;28;20084;-64
2021/01/28 02:34:59;;;;;;;21.52;14.43;;;;;;;;;;10214182;28;20078;-65
2021/01/28 02:39:57;;;;;;;21.65;14.57;;;;;;;;;;10214493;28;20072;-64
2021/01/28 02:45:17;;;;;;;21.52;15.50;;;;;;;;;;10216539;28;20088;-65
2021/01/28 02:50:36;;;;;;;17.75;12.35;;;;;;;;;;10210656;28;20085;-65
2021/01/28 02:55:34;;;;;;;17.58;12.98;;;;;;;;;;10211671;28;20077;-64
2021/01/28 03:00:35;;;;;;;19.25;13.35;;;;;;;;;;10209182;28;20073;-64
2021/01/28 03:05:33;;;;;;;20.02;13.05;;;;;;;;;;10211987;28;20084;-64
2021/01/28 03:10:30;;;;;;;19.65;14.73;;;;;;;;;;10213215;28;20077;-64
2021/01/28 03:15:31;;;;;;;19.20;13.43;;;;;;;;;;10213683;28;20510;-64
2021/01/28 03:20:31;;;;;;;24.83;17.20;;;;;;;;;;10212253;28;20081;-65
2021/01/28 03:25:29;;;;;;;16.13;13.38;;;;;;;;;;10211488;28;20099;-64
2021/01/28 03:30:29;;;;;;;19.88;13.82;;;;;;;;;;10212751;28;20471;-64
2021/01/28 03:35:27;;;;;;;13.82;11.30;;;;;;;;;;10213967;28;20479;-65
2021/01/28 03:40:30;;;;;;;21.83;15.70;;;;;;;;;;10212165;28;20501;-64
2021/01/28 03:45:31;;;;;;;21.65;15.23;;;;;;;;;;10210716;28;20507;-64
2021/01/28 03:50:30;;;;;;;21.10;14.93;;;;;;;;;;10213579;28;20073;-64
2021/01/28 03:55:51;;;;;;;23.48;12.75;;;;;;;;;;10207488;28;20073;-64
2021/01/28 04:00:49;;;;;;;19.02;12.75;;;;;;;;;;10212392;28;20086;-64
2021/01/28 04:05:50;;;;;;;25.02;14.15;;;;;;;;;;10211934;28;20069;-64
2021/01/28 04:11:07;;;;;;;37.10;21.13;;;;;;;;;;10216380;28;20073;-64
2021/01/28 04:16:05;;;;;;;40.58;25.27;;;;;;;;;;10211491;28;20073;-64
2021/01/28 04:21:04;;;;;;;24.38;17.90;;;;;;;;;;10207464;28;20096;-65
2021/01/28 04:26:02;;;;;;;22.85;14.80;;;;;;;;;;10207666;28;20069;-65
2021/01/28 04:31:02;;;;;;;32.65;19.98;;;;;;;;;;10207553;28;20514;-65
2021/01/28 04:36:01;;;;;;;27.63;16.23;;;;;;;;;;10214665;28;20077;-62
2021/01/28 04:41:05;;;;;;;28.73;16.70;;;;;;;;;;10216372;28;20593;-65
2021/01/28 04:46:05;;;;;;;22.92;15.13;;;;;;;;;;10215494;28;20077;-68
2021/01/28 04:51:09;;;;;;;18.13;13.77;;;;;;;;;;10211759;28;20080;-65
2021/01/28 04:56:14;;;;;;;21.90;15.18;;;;;;;;;;10213490;28;20085;-65
2021/01/28 05:01:29;;;;;;;40.53;19.27;;;;;;;;;;10214063;28;20087;-65
2021/01/28 05:06:56;;;;;;;23.55;15.18;;;;;;;;;;10215905;28;20069;-63
2021/01/28 05:12:25;;;;;;;37.40;24.55;;;;;;;;;;10217700;28;20080;-64
2021/01/28 05:17:44;;;;;;;26.55;16.30;;;;;;;;;;10217430;28;20104;-64
2021/01/28 05:23:01;;;;;;;23.30;15.68;;;;;;;;;;10218169;28;20085;-65
2021/01/28 05:28:15;;;;;;;19.10;13.95;;;;;;;;;;10215792;28;20179;-65
2021/01/28 05:33:31;;;;;;;27.85;15.48;;;;;;;;;;10214469;28;20080;-65
2021/01/28 05:38:48;;;;;;;33.40;20.02;;;;;;;;;;10223080;28;20507;-64
2021/01/28 05:43:53;;;;;;;28.60;17.98;;;;;;;;;;10212427;28;20073;-66
2021/01/28 05:49:04;;;;;;;35.67;21.75;;;;;;;;;;10216065;28;20078;-66
2021/01/28 05:54:27;;;;;;;23.95;15.93;;;;;;;;;;10214941;28;20057;-65
2021/01/28 05:59:47;;;;;;;23.90;15.60;;;;;;;;;;10214723;28;20081;-67
2021/01/28 06:04:53;;;;;;;25.80;16.17;;;;;;;;;;10213046;28;20061;-65
2021/01/28 06:10:04;;;;;;;43.05;24.98;;;;;;;;;;10213498;28;20095;-65
2021/01/28 06:15:24;;;;;;;25.85;18.60;;;;;;;;;;10211609;28;20076;-64
2021/01/28 06:21:04;;;;;;;28.17;19.23;;;;;;;;;;10207570;28;20081;-65
2021/01/28 06:26:10;;;;;;;27.95;19.38;;;;;;;;;;10213544;28;20112;-65
2021/01/28 06:31:36;;;;;;;29.08;20.40;;;;;;;;;;10212664;28;20130;-65
2021/01/28 06:37:10;;;;;;;42.70;29.08;;;;;;;;;;10210751;28;20522;-64
2021/01/28 06:42:26;;;;;;;31.55;22.10;;;;;;;;;;10211767;28;20080;-64
2021/01/28 06:47:43;;;;;;;42.10;28.45;;;;;;;;;;10209852;28;20148;-65
2021/01/28 06:52:54;;;;;;;28.17;20.48;;;;;;;;;;10227668;28;20505;-64
2021/01/28 06:58:20;;;;;;;37.72;28.15;;;;;;;;;;10212573;28;20077;-65
2021/01/28 07:03:29;;;;;;;29.63;21.88;;;;;;;;;;10209846;28;20465;-66
2021/01/28 07:08:51;;;;;;;36.95;26.35;;;;;;;;;;10211129;28;20121;-66
2021/01/28 07:13:59;;;;;;;31.13;21.40;;;;;;;;;;10212994;28;20487;-62
2021/01/28 07:19:13;;;;;;;37.72;26.85;;;;;;;;;;10209124;28;20073;-64
2021/01/28 07:24:24;;;;;;;36.47;24.75;;;;;;;;;;10214882;28;20079;-65
2021/01/28 07:29:40;;;;;;;34.40;23.65;;;;;;;;;;10214171;28;20073;-67
2021/01/28 07:34:37;;;;;;;36.13;25.92;;;;;;;;;;10212336;28;20069;-64
2021/01/28 07:39:41;;;;;;;34.85;24.05;;;;;;;;;;10211745;28;20089;-64
2021/01/28 07:50:50;;;;;;;81.93;40.15;;;;;;;;;;10209402;28;20069;-64
2021/01/28 07:55:48;;;;;;;29.23;19.92;;;;;;;;;;10208741;28;20076;-65
2021/01/28 08:00:45;;;;;;;86.00;48.17;;;;;;;;;;10212610;28;20525;-65
2021/01/28 08:05:47;;;;;;;31.63;23.80;;;;;;;;;;10212157;28;20045;-65
2021/01/28 08:10:45;;;;;;;27.77;19.00;;;;;;;;;;10218518;28;20061;-65
2021/01/28 08:15:45;;;;;;;27.17;20.75;;;;;;;;;;10220716;28;20076;-65
2021/01/28 08:20:43;;;;;;;41.42;22.98;;;;;;;;;;10219750;28;20081;-64
2021/01/28 08:25:50;;;;;;;27.90;20.35;;;;;;;;;;10220419;28;20473;-64
2021/01/28 08:30:48;;;;;;;28.45;20.30;;;;;;;;;;10220061;28;20065;-65
2021/01/28 08:35:47;;;;;;;30.17;21.08;;;;;;;;;;10219723;28;20073;-63
2021/01/28 08:40:47;;;;;;;27.92;21.77;;;;;;;;;;10219136;28;20500;-64
2021/01/28 08:45:44;;;;;;;28.10;19.55;;;;;;;;;;10219356;28;20092;-64
2021/01/28 08:50:43;;;;;;;30.48;23.15;;;;;;;;;;10218443;28;20077;-64
2021/01/28 08:55:41;;;;;;;94.93;54.20;;;;;;;;;;10219752;28;20080;-65
2021/01/28 09:00:40;;;;;;;30.65;19.00;;;;;;;;;;10217672;28;20095;-65
2021/01/28 09:05:38;;;;;;;41.65;31.35;;;;;;;;;;10214276;28;20073;-64
2021/01/28 09:10:38;;;;;;;230.63;109.53;;;;;;;;;;10217556;28;20069;-64
2021/01/28 09:15:35;;;;;;;33.97;24.50;;;;;;;;;;10218774;28;20515;-65
2021/01/28 09:20:35;;;;;;;26.95;18.58;;;;;;;;;;10217631;28;20077;-65
2021/01/28 09:25:32;;;;;;;27.98;20.17;;;;;;;;;;10218402;28;20069;-65
2021/01/28 09:30:32;;;;;;;29.23;23.33;;;;;;;;;;10218937;28;20072;-64
2021/01/28 09:35:29;;;;;;;33.38;23.65;;;;;;;;;;10218060;28;20526;-65
2021/01/28 09:40:29;;;;;;;31.88;22.98;;;;;;;;;;10218995;28;20081;-64
2021/01/28 09:45:27;;;;;;;30.73;22.05;;;;;;;;;;10217635;28;20286;-65
2021/01/28 09:50:25;;;;;;;57.03;36.20;;;;;;;;;;10214395;28;20064;-64
2021/01/28 09:55:24;;;;;;;74.95;42.88;;;;;;;;;;10214182;28;20072;-64
2021/01/28 10:00:22;;;;;;;47.67;29.95;;;;;;;;;;10213824;28;20101;-64
2021/01/28 10:05:20;;;;;;;33.03;26.10;;;;;;;;;;10217532;28;20082;-64
2021/01/28 10:10:21;;;;;;;36.53;27.52;;;;;;;;;;10216566;28;20079;-65
2021/01/28 10:15:20;;;;;;;43.17;31.67;;;;;;;;;;10216941;28;20069;-66
2021/01/28 10:20:18;;;;;;;38.45;27.67;;;;;;;;;;10216123;28;20505;-66
2021/01/28 10:25:17;;;;;;;34.05;25.00;;;;;;;;;;10216127;28;20116;-65
2021/01/28 10:30:17;;;;;;;41.78;31.05;;;;;;;;;;10216511;28;20459;-66
2021/01/28 10:35:16;;;;;;;59.33;39.65;;;;;;;;;;10215041;28;20088;-65
2021/01/28 10:40:14;;;;;;;45.33;28.75;;;;;;;;;;10216407;28;20081;-65
2021/01/28 10:45:13;;;;;;;55.47;34.03;;;;;;;;;;10214533;28;20518;-65
2021/01/28 10:50:12;;;;;;;31.15;22.45;;;;;;;;;;10211952;28;20463;-64
2021/01/28 10:55:10;;;;;;;53.03;35.88;;;;;;;;;;10216322;28;20076;-65
2021/01/28 11:00:08;;;;;;;32.67;23.20;;;;;;;;;;10214228;28;20089;-66
2021/01/28 11:05:06;;;;;;;54.17;35.42;;;;;;;;;;10214940;28;20113;-65
2021/01/28 11:10:05;;;;;;;42.08;24.38;;;;;;;;;;10214279;28;20081;-66
2021/01/28 11:15:03;;;;;;;58.78;34.00;;;;;;;;;;10214236;28;20074;-65
2021/01/28 11:20:01;;;;;;;54.92;34.75;;;;;;;;;;10214206;28;20569;-65
2021/01/28 11:24:59;;;;;;;34.70;26.83;;;;;;;;;;10213070;28;20172;-66
2021/01/28 11:29:58;;;;;;;40.50;29.75;;;;;;;;;;10214862;28;20503;-65
2021/01/28 11:34:55;;;;;;;36.85;27.13;;;;;;;;;;10210311;28;20069;-65
2021/01/28 11:39:54;;;;;;;64.28;41.28;;;;;;;;;;10213946;28;20076;-65
2021/01/28 11:44:52;;;;;;;80.43;47.75;;;;;;;;;;10212632;28;20065;-66
2021/01/28 11:49:50;;;;;;;64.65;40.35;;;;;;;;;;10213188;28;20080;-65
2021/01/28 11:54:47;;;;;;;48.50;34.92;;;;;;;;;;10213483;28;20072;-65
2021/01/28 11:59:45;;;;;;;47.63;34.15;;;;;;;;;;10212393;28;20086;-64
2021/01/28 12:04:42;;;;;;;38.95;28.88;;;;;;;;;;10213802;28;20094;-65
2021/01/28 12:09:40;;;;;;;34.22;28.48;;;;;;;;;;10209523;28;20079;-66
2021/01/28 12:14:37;;;;;;;36.40;27.70;;;;;;;;;;10213455;28;20584;-65
2021/01/28 12:19:38;;;;;;;33.58;25.02;;;;;;;;;;10212407;28;20072;-66
2021/01/28 12:24:35;;;;;;;38.95;26.92;;;;;;;;;;10212944;28;20069;-66
2021/01/28 12:29:34;;;;;;;30.65;23.25;;;;;;;;;;10212543;28;20694;-66
2021/01/28 12:34:31;;;;;;;42.15;26.45;;;;;;;;;;10212091;28;20073;-66
2021/01/28 12:39:29;;;;;;;37.10;26.15;;;;;;;;;;10213054;28;20510;-65
2021/01/28 12:44:26;;;;;;;29.83;22.13;;;;;;;;;;10211005;28;20065;-65
2021/01/28 12:49:24;;;;;;;35.47;24.65;;;;;;;;;;10208294;28;20073;-65
2021/01/28 12:54:22;;;;;;;29.60;23.50;;;;;;;;;;10213950;28;20068;-65
2021/01/28 12:59:19;;;;;;;31.70;24.33;;;;;;;;;;10219082;28;20073;-65
2021/01/28 13:04:16;;;;;;;45.22;31.17;;;;;;;;;;10219266;28;20533;-65
2021/01/28 13:09:15;;;;;;;43.03;28.38;;;;;;;;;;10219413;28;20073;-65
2021/01/28 13:14:12;;;;;;;48.25;32.88;;;;;;;;;;10218038;28;20077;-65
2021/01/28 13:19:09;;;;;;;37.00;26.63;;;;;;;;;;10219370;28;20072;-66
2021/01/28 13:24:08;;;;;;;29.20;22.08;;;;;;;;;;10213199;28;20089;-65
2021/01/28 13:29:06;;;;;;;21.85;18.42;;;;;;;;;;10219018;28;20084;-65
2021/01/28 13:34:05;;;;;;;30.63;21.80;;;;;;;;;;10217986;28;20080;-65
2021/01/28 13:39:02;;;;;;;26.40;20.17;;;;;;;;;;10217836;28;20499;-65
2021/01/28 13:44:00;;;;;;;24.70;18.13;;;;;;;;;;10218016;28;20480;-65
2021/01/28 13:48:58;;;;;;;62.08;37.53;;;;;;;;;;10216666;28;20058;-65
2021/01/28 13:53:55;;;;;;;82.40;51.50;;;;;;;;;;10218491;28;20100;-65
2021/01/28 13:58:53;;;;;;;61.22;42.55;;;;;;;;;;10213455;28;20489;-65
2021/01/28 14:03:50;;;;;;;38.80;29.80;;;;;;;;;;10213392;28;20085;-65
2021/01/28 14:08:49;;;;;;;106.15;57.38;;;;;;;;;;10216214;28;20074;-66
2021/01/28 14:13:46;;;;;;;66.07;44.03;;;;;;;;;;10216443;28;20113;-66
2021/01/28 14:18:43;;;;;;;83.53;52.72;;;;;;;;;;10215651;28;20073;-65
2021/01/28 14:23:41;;;;;;;64.85;44.17;;;;;;;;;;10216832;28;20093;-65
2021/01/28 14:28:39;;;;;;;73.22;46.85;;;;;;;;;;10214850;28;20076;-65
2021/01/28 14:33:36;;;;;;;46.78;28.02;;;;;;;;;;10216559;28;20483;-65
2021/01/28 14:38:33;;;;;;;41.67;27.85;;;;;;;;;;10214886;28;20076;-65
2021/01/28 14:43:31;;;;;;;100.05;58.85;;;;;;;;;;10215610;28;20493;-66
2021/01/28 14:48:31;;;;;;;116.63;67.10;;;;;;;;;;10215055;28;20145;-65
2021/01/28 14:53:28;;;;;;;112.78;61.92;;;;;;;;;;10214787;28;20464;-66
2021/01/28 14:58:26;;;;;;;109.45;56.38;;;;;;;;;;10215496;28;20057;-65
2021/01/28 15:03:23;;;;;;;79.10;43.85;;;;;;;;;;10213543;28;20088;-66
2021/01/28 15:08:22;;;;;;;217.45;80.32;;;;;;;;;;10214883;28;20068;-66
2021/01/28 15:13:19;;;;;;;118.28;53.30;;;;;;;;;;10213293;28;20080;-65
2021/01/28 15:18:17;;;;;;;114.57;53.70;;;;;;;;;;10213820;28;20491;-65
2021/01/28 15:23:14;;;;;;;91.63;47.00;;;;;;;;;;10213433;28;20475;-64
2021/01/28 15:28:12;;;;;;;196.85;88.72;;;;;;;;;;10212937;28;20513;-66
2021/01/28 15:33:10;;;;;;;155.48;72.93;;;;;;;;;;10213478;28;20092;-66
2021/01/28 15:38:08;;;;;;;201.20;91.97;;;;;;;;;;10212678;28;20072;-65
2021/01/28 15:43:06;;;;;;;331.15;134.50;;;;;;;;;;10209445;28;20080;-65
2021/01/28 15:48:05;;;;;;;337.33;133.27;;;;;;;;;;10213888;28;20081;-66
2021/01/28 15:53:02;;;;;;;336.08;132.95;;;;;;;;;;10211649;28;20073;-65
2021/01/28 15:58:00;;;;;;;325.27;124.60;;;;;;;;;;10211785;28;20484;-65
2021/01/28 16:02:57;;;;;;;167.57;65.72;;;;;;;;;;10212555;28;20088;-64
2021/01/28 16:07:56;;;;;;;218.10;82.63;;;;;;;;;;10208776;28;20078;-65
2021/01/28 16:12:53;;;;;;;515.28;204.50;;;;;;;;;;10211878;28;20070;-64
2021/01/28 16:17:52;;;;;;;327.77;126.82;;;;;;;;;;10212219;28;20061;-64
2021/01/28 16:22:50;;;;;;;269.42;104.53;;;;;;;;;;10212300;28;20085;-64
2021/01/28 16:27:48;;;;;;;173.93;74.32;;;;;;;;;;10213092;28;20076;-64
2021/01/28 16:32:45;;;;;;;164.55;74.82;;;;;;;;;;10218073;28;20058;-64
2021/01/28 16:37:43;;;;;;;355.35;163.32;;;;;;;;;;10220685;28;20058;-64
2021/01/28 16:42:40;;;;;;;123.38;55.42;;;;;;;;;;10218827;28;20511;-64
2021/01/28 16:47:42;;;;;;;176.43;83.75;;;;;;;;;;10215961;28;20518;-64
2021/01/28 16:52:40;;;;;;;110.22;48.85;;;;;;;;;;10216317;28;20073;-65
2021/01/28 16:57:37;;;;;;;79.00;45.17;;;;;;;;;;10219666;28;20504;-65
2021/01/28 17:02:35;;;;;;;118.65;72.85;;;;;;;;;;10219030;28;20080;-64
2021/01/28 17:07:33;;;;;;;78.80;43.40;;;;;;;;;;10215905;28;20061;-65
2021/01/28 17:12:30;;;;;;;58.40;38.75;;;;;;;;;;10217850;28;20073;-65
2021/01/28 17:17:28;;;;;;;51.78;33.75;;;;;;;;;;10211595;28;20106;-64
2021/01/28 17:22:25;;;;;;;38.15;24.55;;;;;;;;;;10208033;28;20539;-64
2021/01/28 17:27:23;;;;;;;51.10;28.98;;;;;;;;;;10217777;28;20064;-65
2021/01/28 17:32:21;;;;;;;31.55;20.13;;;;;;;;;;10219266;28;20593;-64
2021/01/28 17:37:19;;;;;;;35.60;24.65;;;;;;;;;;10217878;28;20514;-64
2021/01/28 17:42:16;;;;;;;44.65;28.40;;;;;;;;;;10217776;28;20077;-64
2021/01/28 17:47:14;;;;;;;22.55;15.38;;;;;;;;;;10217740;28;20502;-64
2021/01/28 17:52:12;;;;;;;43.65;29.60;;;;;;;;;;10215955;28;20076;-64
2021/01/28 17:57:10;;;;;;;30.48;21.60;;;;;;;;;;10213848;28;20073;-63
2021/01/28 18:02:08;;;;;;;42.85;27.70;;;;;;;;;;10217614;28;20084;-65
2021/01/28 18:07:07;;;;;;;15.88;12.77;;;;;;;;;;10215523;28;20095;-64
2021/01/28 18:12:07;;;;;;;16.85;12.50;;;;;;;;;;10216449;28;20069;-64
2021/01/28 18:17:04;;;;;;;20.63;14.30;;;;;;;;;;10209980;28;20088;-65
2021/01/28 18:22:02;;;;;;;70.38;33.13;;;;;;;;;;10208146;28;20085;-65
2021/01/28 18:27:01;;;;;;;29.55;18.85;;;;;;;;;;10205985;28;21313;-65
2021/01/28 18:31:58;;;;;;;20.20;14.60;;;;;;;;;;10212878;28;20077;-65
2021/01/28 18:36:58;;;;;;;29.02;20.75;;;;;;;;;;10213916;28;20495;-65
2021/01/28 18:41:57;;;;;;;36.53;26.85;;;;;;;;;;10198324;28;20065;-64
2021/01/28 18:46:57;;;;;;;38.85;24.48;;;;;;;;;;10198125;28;20062;-64
2021/01/28 18:51:56;;;;;;;21.23;16.70;;;;;;;;;;10204213;28;20518;-66
2021/01/28 18:56:53;;;;;;;33.88;20.45;;;;;;;;;;10211439;28;20156;-65
2021/01/28 19:01:53;;;;;;;24.73;15.48;;;;;;;;;;10214898;28;20073;-65
2021/01/28 19:06:54;;;;;;;25.63;16.15;;;;;;;;;;10213047;28;20077;-66
2021/01/28 19:11:51;;;;;;;21.58;14.02;;;;;;;;;;10213563;28;20077;-65
2021/01/28 19:16:50;;;;;;;27.83;16.67;;;;;;;;;;10213593;28;20066;-65
2021/01/28 19:21:48;;;;;;;38.67;22.27;;;;;;;;;;10196638;28;20073;-64
2021/01/28 19:26:47;;;;;;;58.88;30.40;;;;;;;;;;10192494;28;20463;-65
2021/01/28 19:31:44;;;;;;;28.98;18.23;;;;;;;;;;10211778;28;20077;-65
2021/01/28 19:36:42;;;;;;;30.80;18.60;;;;;;;;;;10214011;28;20513;-65
2021/01/28 19:41:39;;;;;;;36.35;21.52;;;;;;;;;;10209353;28;20069;-65
2021/01/28 19:46:38;;;;;;;37.35;21.83;;;;;;;;;;10209778;28;20065;-65
2021/01/28 19:51:35;;;;;;;22.98;15.50;;;;;;;;;;10206571;28;20077;-64
2021/01/28 19:56:33;;;;;;;19.42;12.38;;;;;;;;;;10202367;28;20092;-65
2021/01/28 20:01:30;;;;;;;26.67;17.17;;;;;;;;;;10213023;28;20502;-65
2021/01/28 20:06:29;;;;;;;31.10;17.25;;;;;;;;;;10209055;28;20072;-65
2021/01/28 20:11:26;;;;;;;30.75;19.80;;;;;;;;;;10209503;28;20066;-64
2021/01/28 20:16:23;;;;;;;16.83;11.98;;;;;;;;;;10208798;28;20061;-65
2021/01/28 20:21:21;;;;;;;24.20;16.33;;;;;;;;;;10212797;28;20550;-64
2021/01/28 20:26:23;;;;;;;20.40;14.73;;;;;;;;;;10209294;28;20116;-65
2021/01/28 20:31:20;;;;;;;21.05;14.63;;;;;;;;;;10211108;28;20061;-65
2021/01/28 20:36:17;;;;;;;16.20;11.05;;;;;;;;;;10212057;28;20538;-65
2021/01/28 20:41:15;;;;;;;31.48;17.17;;;;;;;;;;10211986;28;20057;-65
2021/01/28 20:46:13;;;;;;;16.50;12.57;;;;;;;;;;10210724;28;20065;-65
2021/01/28 20:51:10;;;;;;;25.27;17.25;;;;;;;;;;10210279;28;20081;-65
2021/01/28 20:56:07;;;;;;;17.95;10.43;;;;;;;;;;10191865;28;20073;-65
2021/01/28 21:01:05;;;;;;;22.10;14.40;;;;;;;;;;10203926;28;20072;-65
2021/01/28 21:06:04;;;;;;;16.05;11.30;;;;;;;;;;10211944;28;20479;-66
2021/01/28 21:11:01;;;;;;;34.97;22.15;;;;;;;;;;10210577;28;20065;-65
2021/01/28 21:15:58;;;;;;;27.33;19.58;;;;;;;;;;10212536;28;20073;-67
2021/01/28 21:20:56;;;;;;;51.58;24.77;;;;;;;;;;10214615;28;20509;-65
2021/01/28 21:25:55;;;;;;;14.77;12.10;;;;;;;;;;10213135;28;20499;-64
2021/01/28 21:30:52;;;;;;;15.85;12.65;;;;;;;;;;10212195;28;20100;-65
2021/01/28 21:35:50;;;;;;;17.05;12.02;;;;;;;;;;10210184;28;20700;-65
2021/01/28 21:40:48;;;;;;;11.55;8.23;;;;;;;;;;10217562;28;20529;-65
2021/01/28 21:45:46;;;;;;;16.38;11.20;;;;;;;;;;10217172;28;20077;-65
2021/01/28 21:50:47;;;;;;;10.32;8.05;;;;;;;;;;10213319;28;20144;-67
2021/01/28 21:55:45;;;;;;;10.95;8.25;;;;;;;;;;10211123;28;20080;-65
2021/01/28 22:00:42;;;;;;;12.65;8.25;;;;;;;;;;10215716;28;20073;-65
2021/01/28 22:05:41;;;;;;;9.63;7.57;;;;;;;;;;10216211;28;20065;-66
2021/01/28 22:10:38;;;;;;;14.52;11.27;;;;;;;;;;10217160;28;20081;-65
2021/01/28 22:15:35;;;;;;;15.10;10.30;;;;;;;;;;10205922;28;20107;-66
2021/01/28 22:20:33;;;;;;;15.75;10.00;;;;;;;;;;10211210;28;20074;-66
2021/01/28 22:25:32;;;;;;;15.38;12.57;;;;;;;;;;10212960;28;20069;-65
2021/01/28 22:30:30;;;;;;;14.90;10.30;;;;;;;;;;10213852;28;20094;-65
2021/01/28 22:35:29;;;;;;;10.50;7.93;;;;;;;;;;10216470;28;20502;-65
2021/01/28 22:40:27;;;;;;;12.88;8.13;;;;;;;;;;10216113;28;20073;-65
2021/01/28 22:45:25;;;;;;;20.73;10.98;;;;;;;;;;10216344;28;20128;-65
2021/01/28 22:50:24;;;;;;;19.25;11.32;;;;;;;;;;10214679;28;20503;-65
2021/01/28 22:55:24;;;;;;;28.25;14.52;;;;;;;;;;10216379;28;20154;-66
2021/01/28 23:00:24;;;;;;;13.00;9.02;;;;;;;;;;10212069;28;20065;-71
2021/01/28 23:05:23;;;;;;;11.48;8.65;;;;;;;;;;10211739;28;20077;-72
2021/01/28 23:10:22;;;;;;;22.65;13.10;;;;;;;;;;10209782;28;20084;-70
2021/01/28 23:15:22;;;;;;;21.38;13.77;;;;;;;;;;10214329;28;20046;-72
2021/01/28 23:20:20;;;;;;;17.45;11.55;;;;;;;;;;10213216;28;20068;-72
2021/01/28 23:25:23;;;;;;;13.18;8.80;;;;;;;;;;10215222;28;20076;-72
2021/01/28 23:30:23;;;;;;;10.93;8.23;;;;;;;;;;10213220;28;20069;-70
2021/01/28 23:35:22;;;;;;;10.95;6.80;;;;;;;;;;10214799;28;20073;-71
2021/01/28 23:40:21;;;;;;;11.88;8.35;;;;;;;;;;10213294;28;20462;-71
2021/01/28 23:45:19;;;;;;;11.05;8.60;;;;;;;;;;10214390;28;20080;-72
2021/01/28 23:50:17;;;;;;;14.27;9.55;;;;;;;;;;10213475;28;20072;-70
2021/01/28 23:55:15;;;;;;;7.68;6.30;;;;;;;;;;10216531;28;20058;-71
